Electra — WQ5910 — position and weather

sailwx.info

Track history (hours):
 
Tides and Currents Weather Stations Pressure Air Temp Water Temp Dewpoint Dewpoint Depression Visibility Wind Speed Wind Dir Waves Ship Positions

Electra

Owner: HELGREN, RICHARD F, OCEANSIDE, CA. More information available from US FCC via Universal Licensing System and Coast Guard Vessel Documentation Center.

Last reported at 2017-Nov-20 00:08 UTC. Time now 2017-Nov-21 10:26 UTC.
Position N 33°12' W 117°23'.

Length 24 m.

Type: Wing in ground effect craft. MMSI: 367394780.

Date/timePositionNaut miles runAvg speedWind from/ knotsBaromVisibWave heightAir tempDewpointWater temp
2017-Nov-20 00:08N 33°12' W 117°23'1 4.1
2017-Nov-20 00:00N 33°12' W 117°24'5 9.6
2017-Nov-19 23:30N 33°08' W 117°22'5 9.5
2017-Nov-19 23:00N 33°03' W 117°20'4 8.2
2017-Nov-19 22:30N 32°59' W 117°19'0 0.0
2017-Nov-19 22:00N 32°59' W 117°19'0 0.3
2017-Nov-19 21:30N 32°59' W 117°19'0 0.0
2017-Nov-19 21:00N 32°59' W 117°19'1 1.1
2017-Nov-19 20:30N 32°60' W 117°19'0 0.2
2017-Nov-19 20:00N 32°60' W 117°19'0 0.1
2017-Nov-19 19:30N 32°60' W 117°19'0 0.3
2017-Nov-19 19:00N 32°60' W 117°19'0 0.4
2017-Nov-19 18:30N 32°59' W 117°19'0 0.2
2017-Nov-19 18:00N 32°60' W 117°19'0 0.0
2017-Nov-19 17:30N 32°60' W 117°19'0 0.1
2017-Nov-19 17:00N 32°60' W 117°19'1 2.4
2017-Nov-19 16:30N 33°01' W 117°19'5 9.8
2017-Nov-19 16:00N 33°05' W 117°22'5 9.9
2017-Nov-19 15:30N 33°10' W 117°23'2 0.2
2017-Nov-19 00:10N 33°12' W 117°23'1 3.5
2017-Nov-19 00:00N 33°13' W 117°24'4 7.1
2017-Nov-18 23:30N 33°09' W 117°22'611.3
2017-Nov-18 23:00N 33°04' W 117°20'5 9.6
2017-Nov-18 22:31N 32°59' W 117°19'0 0.2
2017-Nov-18 22:00N 32°59' W 117°19'0 0.0
2017-Nov-18 21:30N 32°59' W 117°19'0 0.6
2017-Nov-18 21:00N 32°60' W 117°19'0 0.6
2017-Nov-18 20:30N 32°59' W 117°19'0 0.5
2017-Nov-18 20:01N 32°59' W 117°19'1 1.1
2017-Nov-18 19:31N 32°60' W 117°19'0 0.0
2017-Nov-18 19:00N 32°60' W 117°19'0 0.4
2017-Nov-18 18:30N 32°59' W 117°19'0 0.0
2017-Nov-18 18:00N 32°59' W 117°19'0 0.0
2017-Nov-18 17:31N 32°59' W 117°19'0 0.2
2017-Nov-18 17:01N 32°59' W 117°19'3 5.3
2017-Nov-18 16:31N 33°02' W 117°20'510.2
2017-Nov-18 16:01N 33°07' W 117°22'5 9.8
2017-Nov-18 15:30N 33°11' W 117°24'  
2017-Nov-16 01:05N 33°12' W 117°24'1 8.4
2017-Nov-16 01:00N 33°12' W 117°24'1 1.3
2017-Nov-16 00:30N 33°11' W 117°24'1 0.0
2017-Nov-14 23:10N 33°12' W 117°24'1 4.5
2017-Nov-14 23:00N 33°12' W 117°25'1 2.3
2017-Nov-14 22:30N 33°13' W 117°26'1 2.6
2017-Nov-14 22:00N 33°11' W 117°25'2 4.5
2017-Nov-14 21:30N 33°10' W 117°23'0 0.1
2017-Nov-14 21:00N 33°10' W 117°23'4 8.0
2017-Nov-14 20:30N 33°07' W 117°21'0 0.0
2017-Nov-14 20:00N 33°07' W 117°21'0 0.0
2017-Nov-14 19:30N 33°07' W 117°21'0 0.0
2017-Nov-14 19:00N 33°07' W 117°21'4 8.1
2017-Nov-14 18:30N 33°10' W 117°23'2 0.1
2017-Nov-13 00:13N 33°12' W 117°23'1 5.4
2017-Nov-13 00:00N 33°11' W 117°24'510.4
2017-Nov-12 23:31N 33°06' W 117°22'510.3
2017-Nov-12 23:00N 33°02' W 117°19'2 4.4
2017-Nov-12 22:30N 32°60' W 117°17'0 0.0
2017-Nov-12 22:01N 32°60' W 117°17'3 5.8
2017-Nov-12 21:31N 32°57' W 117°18'1 2.4
2017-Nov-12 21:00N 32°56' W 117°19'0 0.1
2017-Nov-12 20:30N 32°56' W 117°19'0 0.1
2017-Nov-12 20:01N 32°56' W 117°19'3 6.6
2017-Nov-12 19:30N 32°59' W 117°19'0 0.0
2017-Nov-12 19:01N 32°59' W 117°19'0 0.3
2017-Nov-12 18:31N 32°59' W 117°19'1 2.0
2017-Nov-12 18:00N 32°58' W 117°19'1 2.3
2017-Nov-12 17:30N 32°58' W 117°18'0 0.0
2017-Nov-12 17:00N 32°58' W 117°18'3 5.6
2017-Nov-12 16:31N 33°00' W 117°18'510.5
2017-Nov-12 16:01N 33°05' W 117°21'510.3
2017-Nov-12 15:31N 33°10' W 117°23'2 0.2
2017-Nov-12 01:05N 33°12' W 117°23'0 5.7
2017-Nov-12 01:00N 33°12' W 117°24'1 2.2
2017-Nov-12 00:31N 33°11' W 117°23'1 0.7
2017-Nov-11 23:13N 33°12' W 117°23'1 3.8
2017-Nov-11 23:00N 33°12' W 117°24'510.4
2017-Nov-11 22:31N 33°07' W 117°22'3 5.6
2017-Nov-11 22:01N 33°04' W 117°21'0 0.1
2017-Nov-11 21:31N 33°04' W 117°21'2 4.4
2017-Nov-11 21:01N 33°02' W 117°20'3 5.6
2017-Nov-11 20:31N 32°59' W 117°19'0 0.0
2017-Nov-11 20:01N 32°59' W 117°19'1 2.9
2017-Nov-11 19:31N 33°01' W 117°20'510.2
2017-Nov-11 19:01N 33°05' W 117°22'5 9.9
2017-Nov-11 18:31N 33°10' W 117°23'2 0.1
2017-Nov-11 00:28N 33°12' W 117°23'4 7.7
2017-Nov-11 00:00N 33°09' W 117°23'510.3
2017-Nov-10 23:31N 33°04' W 117°20'5 9.5
2017-Nov-10 23:00N 32°60' W 117°17'0 0.0
2017-Nov-10 22:31N 32°60' W 117°17'1 1.8
2017-Nov-10 22:00N 32°59' W 117°17'0 0.0
2017-Nov-10 21:30N 32°59' W 117°17'1 1.7
2017-Nov-10 21:01N 32°60' W 117°17'0 0.0
2017-Nov-10 20:31N 32°60' W 117°17'0 0.0
2017-Nov-10 20:01N 32°60' W 117°17'1 2.5
2017-Nov-10 19:30N 32°59' W 117°19'0 0.0
2017-Nov-10 19:01N 32°59' W 117°19'0 0.0
2017-Nov-10 18:31N 32°59' W 117°19'0 0.3
2017-Nov-10 18:01N 32°59' W 117°19'0 0.3
2017-Nov-10 17:31N 32°59' W 117°19'0 0.2
2017-Nov-10 17:01N 32°59' W 117°19'1 2.0
2017-Nov-10 16:31N 33°00' W 117°19'5 9.6
2017-Nov-10 16:01N 33°05' W 117°21'5 9.9
2017-Nov-10 15:30N 33°09' W 117°23'  
Track history (hours):
 
Tides and Currents Weather Stations Pressure Air Temp Water Temp Dewpoint Dewpoint Depression Visibility Wind Speed Wind Dir Waves Ship Positions

Electra

Owner: HELGREN, RICHARD F, OCEANSIDE, CA. More information available from US FCC via Universal Licensing System and Coast Guard Vessel Documentation Center.

Last reported at 2017-Nov-20 00:08 UTC. Time now 2017-Nov-21 10:26 UTC.
Position N 33°12' W 117°23'.

Length 24 m.

Type: Wing in ground effect craft. MMSI: 367394780.

Date/timePositionNaut miles runAvg speedWind from/ knotsBaromVisibWave heightAir tempDewpointWater temp
2017-Nov-20 00:08N 33°12' W 117°23'1 4.1
2017-Nov-20 00:00N 33°12' W 117°24'5 9.6
2017-Nov-19 23:30N 33°08' W 117°22'5 9.5
2017-Nov-19 23:00N 33°03' W 117°20'4 8.2
2017-Nov-19 22:30N 32°59' W 117°19'0 0.0
2017-Nov-19 22:00N 32°59' W 117°19'0 0.3
2017-Nov-19 21:30N 32°59' W 117°19'0 0.0
2017-Nov-19 21:00N 32°59' W 117°19'1 1.1
2017-Nov-19 20:30N 32°60' W 117°19'0 0.2
2017-Nov-19 20:00N 32°60' W 117°19'0 0.1
2017-Nov-19 19:30N 32°60' W 117°19'0 0.3
2017-Nov-19 19:00N 32°60' W 117°19'0 0.4
2017-Nov-19 18:30N 32°59' W 117°19'0 0.2
2017-Nov-19 18:00N 32°60' W 117°19'0 0.0
2017-Nov-19 17:30N 32°60' W 117°19'0 0.1
2017-Nov-19 17:00N 32°60' W 117°19'1 2.4
2017-Nov-19 16:30N 33°01' W 117°19'5 9.8
2017-Nov-19 16:00N 33°05' W 117°22'5 9.9
2017-Nov-19 15:30N 33°10' W 117°23'2 0.2
2017-Nov-19 00:10N 33°12' W 117°23'1 3.5
2017-Nov-19 00:00N 33°13' W 117°24'4 7.1
2017-Nov-18 23:30N 33°09' W 117°22'611.3
2017-Nov-18 23:00N 33°04' W 117°20'5 9.6
2017-Nov-18 22:31N 32°59' W 117°19'0 0.2
2017-Nov-18 22:00N 32°59' W 117°19'0 0.0
2017-Nov-18 21:30N 32°59' W 117°19'0 0.6
2017-Nov-18 21:00N 32°60' W 117°19'0 0.6
2017-Nov-18 20:30N 32°59' W 117°19'0 0.5
2017-Nov-18 20:01N 32°59' W 117°19'1 1.1
2017-Nov-18 19:31N 32°60' W 117°19'0 0.0
2017-Nov-18 19:00N 32°60' W 117°19'0 0.4
2017-Nov-18 18:30N 32°59' W 117°19'0 0.0
2017-Nov-18 18:00N 32°59' W 117°19'0 0.0
2017-Nov-18 17:31N 32°59' W 117°19'0 0.2
2017-Nov-18 17:01N 32°59' W 117°19'3 5.3
2017-Nov-18 16:31N 33°02' W 117°20'510.2
2017-Nov-18 16:01N 33°07' W 117°22'5 9.8
2017-Nov-18 15:30N 33°11' W 117°24'  
2017-Nov-16 01:05N 33°12' W 117°24'1 8.4
2017-Nov-16 01:00N 33°12' W 117°24'1 1.3
2017-Nov-16 00:30N 33°11' W 117°24'1 0.0
2017-Nov-14 23:10N 33°12' W 117°24'1 4.5
2017-Nov-14 23:00N 33°12' W 117°25'1 2.3
2017-Nov-14 22:30N 33°13' W 117°26'1 2.6
2017-Nov-14 22:00N 33°11' W 117°25'2 4.5
2017-Nov-14 21:30N 33°10' W 117°23'0 0.1
2017-Nov-14 21:00N 33°10' W 117°23'4 8.0
2017-Nov-14 20:30N 33°07' W 117°21'0 0.0
2017-Nov-14 20:00N 33°07' W 117°21'0 0.0
2017-Nov-14 19:30N 33°07' W 117°21'0 0.0
2017-Nov-14 19:00N 33°07' W 117°21'4 8.1
2017-Nov-14 18:30N 33°10' W 117°23'2 0.1
2017-Nov-13 00:13N 33°12' W 117°23'1 5.4
2017-Nov-13 00:00N 33°11' W 117°24'510.4
2017-Nov-12 23:31N 33°06' W 117°22'510.3
2017-Nov-12 23:00N 33°02' W 117°19'2 4.4
2017-Nov-12 22:30N 32°60' W 117°17'0 0.0
2017-Nov-12 22:01N 32°60' W 117°17'3 5.8
2017-Nov-12 21:31N 32°57' W 117°18'1 2.4
2017-Nov-12 21:00N 32°56' W 117°19'0 0.1
2017-Nov-12 20:30N 32°56' W 117°19'0 0.1
2017-Nov-12 20:01N 32°56' W 117°19'3 6.6
2017-Nov-12 19:30N 32°59' W 117°19'0 0.0
2017-Nov-12 19:01N 32°59' W 117°19'0 0.3
2017-Nov-12 18:31N 32°59' W 117°19'1 2.0
2017-Nov-12 18:00N 32°58' W 117°19'1 2.3
2017-Nov-12 17:30N 32°58' W 117°18'0 0.0
2017-Nov-12 17:00N 32°58' W 117°18'3 5.6
2017-Nov-12 16:31N 33°00' W 117°18'510.5
2017-Nov-12 16:01N 33°05' W 117°21'510.3
2017-Nov-12 15:31N 33°10' W 117°23'2 0.2
2017-Nov-12 01:05N 33°12' W 117°23'0 5.7
2017-Nov-12 01:00N 33°12' W 117°24'1 2.2
2017-Nov-12 00:31N 33°11' W 117°23'1 0.7
2017-Nov-11 23:13N 33°12' W 117°23'1 3.8
2017-Nov-11 23:00N 33°12' W 117°24'510.4
2017-Nov-11 22:31N 33°07' W 117°22'3 5.6
2017-Nov-11 22:01N 33°04' W 117°21'0 0.1
2017-Nov-11 21:31N 33°04' W 117°21'2 4.4
2017-Nov-11 21:01N 33°02' W 117°20'3 5.6
2017-Nov-11 20:31N 32°59' W 117°19'0 0.0
2017-Nov-11 20:01N 32°59' W 117°19'1 2.9
2017-Nov-11 19:31N 33°01' W 117°20'510.2
2017-Nov-11 19:01N 33°05' W 117°22'5 9.9
2017-Nov-11 18:31N 33°10' W 117°23'2 0.1
2017-Nov-11 00:28N 33°12' W 117°23'4 7.7
2017-Nov-11 00:00N 33°09' W 117°23'510.3
2017-Nov-10 23:31N 33°04' W 117°20'5 9.5
2017-Nov-10 23:00N 32°60' W 117°17'0 0.0
2017-Nov-10 22:31N 32°60' W 117°17'1 1.8
2017-Nov-10 22:00N 32°59' W 117°17'0 0.0
2017-Nov-10 21:30N 32°59' W 117°17'1 1.7
2017-Nov-10 21:01N 32°60' W 117°17'0 0.0
2017-Nov-10 20:31N 32°60' W 117°17'0 0.0
2017-Nov-10 20:01N 32°60' W 117°17'1 2.5
2017-Nov-10 19:30N 32°59' W 117°19'0 0.0
2017-Nov-10 19:01N 32°59' W 117°19'0 0.0
2017-Nov-10 18:31N 32°59' W 117°19'0 0.3
2017-Nov-10 18:01N 32°59' W 117°19'0 0.3
2017-Nov-10 17:31N 32°59' W 117°19'0 0.2
2017-Nov-10 17:01N 32°59' W 117°19'1 2.0
2017-Nov-10 16:31N 33°00' W 117°19'5 9.6
2017-Nov-10 16:01N 33°05' W 117°21'5 9.9
2017-Nov-10 15:30N 33°09' W 117°23'  

Dump ship's entire track history